createdAt,value
2018-04-06T00:00:53.053Z,2.37
2018-04-06T00:03:20.552Z,2.36
2018-04-06T00:05:48.013Z,2.36
2018-04-06T00:08:15.464Z,2.29
2018-04-06T00:10:42.936Z,2.28
2018-04-06T00:13:10.390Z,2.20
2018-04-06T00:15:37.866Z,2.15
2018-04-06T00:18:05.319Z,2.08
2018-04-06T00:20:32.801Z,2.03
2018-04-06T00:23:00.264Z,2.00
2018-04-06T00:25:27.738Z,2.00
2018-04-06T00:27:55.191Z,1.96
2018-04-06T00:30:22.663Z,1.94
2018-04-06T00:32:50.122Z,1.95
2018-04-06T00:35:17.598Z,1.90
2018-04-06T00:37:45.062Z,1.81
2018-04-06T00:40:12.530Z,1.66
2018-04-06T00:42:39.996Z,1.64
2018-04-06T00:45:07.478Z,1.61
2018-04-06T00:47:34.990Z,1.53
2018-04-06T00:50:02.437Z,1.52
2018-04-06T00:52:29.887Z,1.47
2018-04-06T00:54:57.359Z,1.54
2018-04-06T00:57:24.815Z,1.51
2018-04-06T00:59:52.308Z,1.53
2018-04-06T01:02:19.764Z,1.51
2018-04-06T01:04:47.247Z,1.51
2018-04-06T01:07:32.187Z,1.51
2018-04-06T01:10:17.422Z,1.52
2018-04-06T01:13:02.320Z,1.55
2018-04-06T01:15:47.272Z,1.52
2018-04-06T01:18:14.728Z,1.54
2018-04-06T01:20:42.214Z,1.57
2018-04-06T01:23:09.677Z,1.58
2018-04-06T01:25:37.161Z,1.56
2018-04-06T01:28:04.631Z,1.61
2018-04-06T01:30:32.104Z,1.63
2018-04-06T01:32:59.560Z,1.65
2018-04-06T01:35:27.044Z,1.61
2018-04-06T01:37:55.342Z,1.63
2018-04-06T01:40:22.821Z,1.63
2018-04-06T01:42:50.287Z,1.63
2018-04-06T01:45:17.768Z,1.67
2018-04-06T01:47:45.227Z,1.67
2018-04-06T01:50:12.711Z,1.66
2018-04-06T01:52:40.175Z,1.67
2018-04-06T01:55:07.663Z,1.64
2018-04-06T01:57:35.115Z,1.60
2018-04-06T02:00:02.600Z,1.61
2018-04-06T02:02:30.075Z,1.56
2018-04-06T02:04:57.543Z,1.52
2018-04-06T02:07:25.002Z,1.53
2018-04-06T02:09:52.461Z,1.51
2018-04-06T02:12:19.939Z,1.51
2018-04-06T02:14:47.396Z,1.47
2018-04-06T02:17:14.876Z,1.42
2018-04-06T02:19:42.335Z,1.41
2018-04-06T02:22:09.819Z,1.44
2018-04-06T02:24:37.335Z,1.36
2018-04-06T02:27:04.775Z,1.41
2018-04-06T02:29:32.231Z,1.48
2018-04-06T02:31:59.709Z,1.56
2018-04-06T02:34:27.168Z,1.65
2018-04-06T02:36:54.656Z,1.70
2018-04-06T02:39:22.115Z,1.75
2018-04-06T02:41:49.607Z,1.81
2018-04-06T02:44:17.076Z,1.87
2018-04-06T02:46:44.562Z,1.90
2018-04-06T02:49:12.088Z,1.96
2018-04-06T02:51:39.574Z,1.89
2018-04-06T02:54:07.035Z,1.73
2018-04-06T02:56:34.512Z,1.77
2018-04-06T02:59:01.973Z,1.77
2018-04-06T03:01:30.399Z,1.83
2018-04-06T03:03:57.868Z,1.84
2018-04-06T03:06:25.343Z,1.83
2018-04-06T03:08:52.802Z,1.84
2018-04-06T03:11:20.276Z,1.77
2018-04-06T03:13:47.735Z,1.79
2018-04-06T03:16:15.220Z,1.83
2018-04-06T03:18:42.681Z,1.86
2018-04-06T03:21:10.160Z,1.80
2018-04-06T03:23:37.620Z,1.79
2018-04-06T03:26:05.097Z,1.74
2018-04-06T03:28:32.555Z,1.71
2018-04-06T03:31:00.033Z,1.66
2018-04-06T03:33:27.491Z,1.64
2018-04-06T03:35:54.947Z,1.60
2018-04-06T03:38:22.415Z,1.54
2018-04-06T03:40:49.872Z,1.48
2018-04-06T03:43:17.351Z,1.39
2018-04-06T03:45:44.836Z,1.34
2018-04-06T03:48:12.310Z,1.33
2018-04-06T03:50:39.811Z,1.28
2018-04-06T03:53:07.316Z,1.27
2018-04-06T03:55:34.772Z,1.27
2018-04-06T03:58:02.261Z,1.25
2018-04-06T04:00:29.714Z,1.24
2018-04-06T04:02:57.192Z,1.25
2018-04-06T04:05:24.655Z,1.24
2018-04-06T04:07:52.139Z,1.22
2018-04-06T04:10:19.622Z,1.19
2018-04-06T04:12:47.108Z,1.16
2018-04-06T04:15:14.599Z,1.15
2018-04-06T04:17:42.078Z,1.15
2018-04-06T04:20:09.548Z,1.16
2018-04-06T04:22:37.044Z,1.15
2018-04-06T04:25:04.503Z,1.19
2018-04-06T04:27:31.988Z,1.18
2018-04-06T04:29:59.450Z,1.18
2018-04-06T04:32:26.930Z,1.19
2018-04-06T04:34:54.392Z,1.19
2018-04-06T04:37:21.889Z,1.18
2018-04-06T04:39:49.359Z,1.14
2018-04-06T04:42:16.842Z,1.10
2018-04-06T04:44:44.311Z,1.13
2018-04-06T04:47:11.791Z,1.11
2018-04-06T04:49:39.255Z,1.10
2018-04-06T04:52:06.754Z,1.08
2018-04-06T04:54:34.218Z,1.04
2018-04-06T04:57:01.723Z,0.95
2018-04-06T04:59:29.188Z,0.85
2018-04-06T05:01:56.660Z,0.83
2018-04-06T05:04:24.147Z,0.86
2018-04-06T05:06:51.611Z,0.86
2018-04-06T05:09:19.103Z,0.90
2018-04-06T05:11:46.567Z,0.95
2018-04-06T05:14:14.054Z,1.00
2018-04-06T05:16:41.520Z,1.01
2018-04-06T05:19:09.003Z,1.03
2018-04-06T05:21:36.462Z,1.01
2018-04-06T05:24:03.948Z,1.01
2018-04-06T05:26:31.411Z,1.02
2018-04-06T05:28:58.894Z,1.01
2018-04-06T05:31:26.355Z,1.01
2018-04-06T05:33:53.844Z,1.02
2018-04-06T05:36:21.307Z,1.07
2018-04-06T05:38:48.861Z,1.08
2018-04-06T05:41:16.276Z,1.13
2018-04-06T05:43:43.775Z,1.17
2018-04-06T05:46:11.256Z,1.24
2018-04-06T05:48:38.757Z,1.27
2018-04-06T05:51:06.215Z,1.35
2018-04-06T05:53:33.706Z,1.48
2018-04-06T05:56:01.180Z,1.61
2018-04-06T05:58:28.667Z,1.80
2018-04-06T06:00:56.139Z,1.95
2018-04-06T06:03:23.646Z,2.11
2018-04-06T06:05:51.341Z,2.29
2018-04-06T06:08:18.824Z,2.43
2018-04-06T06:10:46.296Z,2.58
2018-04-06T06:13:13.782Z,2.76
2018-04-06T06:15:41.264Z,2.97
2018-04-06T06:18:08.749Z,3.15
2018-04-06T06:20:36.209Z,3.34
2018-04-06T06:23:03.728Z,3.53
2018-04-06T06:25:31.196Z,3.72
2018-04-06T06:27:58.660Z,3.91
2018-04-06T06:30:26.144Z,4.08
2018-04-06T06:32:53.616Z,4.21
2018-04-06T06:35:21.195Z,4.43
2018-04-06T06:37:48.674Z,4.56
2018-04-06T06:40:16.155Z,4.72
2018-04-06T06:42:43.635Z,4.88
2018-04-06T06:45:11.127Z,5.01
2018-04-06T06:47:38.614Z,5.06
2018-04-06T06:50:06.103Z,5.07
2018-04-06T06:52:33.563Z,5.35
2018-04-06T06:55:01.047Z,5.45
2018-04-06T06:57:28.512Z,5.49
2018-04-06T06:59:55.997Z,5.68
2018-04-06T07:02:23.464Z,5.80
2018-04-06T07:04:50.964Z,5.92
2018-04-06T07:07:18.437Z,5.99
2018-04-06T07:09:45.922Z,6.15
2018-04-06T07:12:13.385Z,6.26
2018-04-06T07:14:40.890Z,6.33
2018-04-06T07:17:08.360Z,6.41
2018-04-06T07:19:35.843Z,6.52
2018-04-06T07:22:03.308Z,6.60
2018-04-06T07:24:30.795Z,6.64
2018-04-06T07:26:58.255Z,6.74
2018-04-06T07:29:25.739Z,6.79
2018-04-06T07:31:53.965Z,6.87
2018-04-06T07:34:21.452Z,7.00
2018-04-06T07:36:48.921Z,7.05
2018-04-06T07:39:16.403Z,7.16
2018-04-06T07:41:43.859Z,7.14
2018-04-06T07:44:11.377Z,7.37
2018-04-06T07:46:38.823Z,7.37
2018-04-06T07:49:06.310Z,7.55
2018-04-06T07:51:33.780Z,7.56
2018-04-06T07:54:02.236Z,7.59
2018-04-06T07:56:29.723Z,7.69
2018-04-06T07:58:57.933Z,7.82
2018-04-06T08:01:25.422Z,7.65
2018-04-06T08:03:52.889Z,7.90
2018-04-06T08:06:20.375Z,8.11
2018-04-06T08:08:47.843Z,8.01
2018-04-06T08:11:15.322Z,8.25
2018-04-06T08:13:42.775Z,8.27
2018-04-06T08:16:10.266Z,8.29
2018-04-06T08:18:37.727Z,8.34
2018-04-06T08:21:05.205Z,8.45
2018-04-06T08:23:32.666Z,8.44
2018-04-06T08:26:00.143Z,8.57
2018-04-06T08:28:27.599Z,8.70
2018-04-06T08:30:55.086Z,8.78
2018-04-06T08:33:22.547Z,8.82
2018-04-06T08:35:50.034Z,8.94
2018-04-06T08:38:17.488Z,9.08
2018-04-06T08:40:44.967Z,9.14
2018-04-06T08:43:12.432Z,9.09
2018-04-06T08:45:39.916Z,9.19
2018-04-06T08:48:07.434Z,9.27
2018-04-06T08:50:34.874Z,9.36
2018-04-06T08:53:02.330Z,9.45
2018-04-06T08:55:29.814Z,9.34
2018-04-06T08:57:57.268Z,9.42
2018-04-06T09:00:24.735Z,9.65
2018-04-06T09:02:52.193Z,9.68
2018-04-06T09:05:19.685Z,9.73
2018-04-06T09:07:47.136Z,9.89
2018-04-06T09:10:14.621Z,10.00
2018-04-06T09:12:42.086Z,9.91
2018-04-06T09:15:09.552Z,9.70
2018-04-06T09:17:37.031Z,9.86
2018-04-06T09:20:04.495Z,9.88
2018-04-06T09:22:31.980Z,9.77
2018-04-06T09:24:59.437Z,9.83
2018-04-06T09:27:26.915Z,9.94
2018-04-06T09:29:54.385Z,9.98
2018-04-06T09:32:21.868Z,10.00
2018-04-06T09:34:49.331Z,10.15
2018-04-06T09:37:16.818Z,10.21
2018-04-06T09:39:44.281Z,10.22
2018-04-06T09:42:11.762Z,10.25
2018-04-06T09:44:39.218Z,10.31
2018-04-06T09:47:06.703Z,10.39
2018-04-06T09:49:34.212Z,10.38
2018-04-06T09:52:01.898Z,10.51
2018-04-06T09:54:29.359Z,10.64
2018-04-06T09:56:56.854Z,10.64
2018-04-06T09:59:24.362Z,10.75
2018-04-06T10:02:01.768Z,10.80
2018-04-06T10:04:29.244Z,10.85
2018-04-06T10:06:56.748Z,10.96
2018-04-06T10:09:24.218Z,10.98
2018-04-06T10:11:51.695Z,11.01
2018-04-06T10:14:19.159Z,11.07
2018-04-06T10:16:46.648Z,11.12
2018-04-06T10:19:14.112Z,11.18
2018-04-06T10:21:41.605Z,11.33
2018-04-06T10:24:09.071Z,11.43
2018-04-06T10:26:36.547Z,11.64
2018-04-06T10:29:04.016Z,11.79
2018-04-06T10:31:31.582Z,11.72
2018-04-06T10:33:59.046Z,11.51
2018-04-06T10:36:26.541Z,11.74
2018-04-06T10:38:53.995Z,11.88
2018-04-06T10:41:21.474Z,11.98
2018-04-06T10:43:48.966Z,12.08
2018-04-06T10:46:16.428Z,11.74
2018-04-06T10:48:43.925Z,11.99
2018-04-06T10:51:11.428Z,11.96
2018-04-06T10:53:38.915Z,12.25
2018-04-06T10:56:06.383Z,12.16
2018-04-06T10:58:33.883Z,12.31
2018-04-06T11:01:01.344Z,12.40
2018-04-06T11:03:28.827Z,12.47
2018-04-06T11:05:56.299Z,12.63
2018-04-06T11:08:23.799Z,12.29
2018-04-06T11:10:51.260Z,12.61
2018-04-06T11:13:18.739Z,12.79
2018-04-06T11:15:46.203Z,12.81
2018-04-06T11:18:13.697Z,13.07
2018-04-06T11:20:41.166Z,12.83
2018-04-06T11:23:08.694Z,13.15
2018-04-06T11:25:36.135Z,13.24
2018-04-06T11:28:03.617Z,13.33
2018-04-06T11:30:31.075Z,13.40
2018-04-06T11:32:58.560Z,13.05
2018-04-06T11:35:26.032Z,13.47
2018-04-06T11:37:53.524Z,13.64
2018-04-06T11:40:20.986Z,13.72
2018-04-06T11:42:48.466Z,13.87
2018-04-06T11:45:15.923Z,14.07
2018-04-06T11:47:43.404Z,13.91
2018-04-06T11:50:10.867Z,14.06
2018-04-06T11:52:38.344Z,14.11
2018-04-06T11:55:05.855Z,14.19
2018-04-06T11:57:33.335Z,14.43
2018-04-06T12:00:00.799Z,14.57
2018-04-06T12:02:28.315Z,14.55
2018-04-06T12:04:55.783Z,14.70
2018-04-06T12:07:23.251Z,14.77
2018-04-06T12:09:50.736Z,14.87
2018-04-06T12:12:18.192Z,14.96
2018-04-06T12:14:45.684Z,14.96
2018-04-06T12:17:13.136Z,15.11
2018-04-06T12:19:40.619Z,15.17
2018-04-06T12:22:08.080Z,15.05
2018-04-06T12:24:35.561Z,14.99
2018-04-06T12:27:03.015Z,15.34
2018-04-06T12:29:30.499Z,15.50
2018-04-06T12:31:57.958Z,15.22
2018-04-06T12:34:25.465Z,15.20
2018-04-06T12:36:52.956Z,15.57
2018-04-06T12:39:20.664Z,15.71
2018-04-06T12:41:48.124Z,15.52
2018-04-06T12:44:15.615Z,15.81
2018-04-06T12:46:43.083Z,15.86
2018-04-06T12:49:10.560Z,15.88
2018-04-06T12:51:38.024Z,15.98
2018-04-06T12:54:05.512Z,16.10
2018-04-06T12:56:32.976Z,16.20
2018-04-06T12:59:00.465Z,16.01
2018-04-06T13:01:27.938Z,15.91
2018-04-06T13:03:55.419Z,16.21
2018-04-06T13:06:23.090Z,16.52
2018-04-06T13:08:50.568Z,16.30
2018-04-06T13:11:18.027Z,16.62
2018-04-06T13:13:45.516Z,16.92
2018-04-06T13:16:12.971Z,17.25
2018-04-06T13:18:40.456Z,16.96
2018-04-06T13:21:07.912Z,17.30
2018-04-06T13:23:35.387Z,17.55
2018-04-06T13:26:02.842Z,18.11
2018-04-06T13:28:30.298Z,19.49
2018-04-06T13:30:57.816Z,20.63
2018-04-06T13:33:25.277Z,21.26
2018-04-06T13:35:52.775Z,21.86
2018-04-06T13:38:20.234Z,19.71
2018-04-06T13:40:47.716Z,20.42
2018-04-06T13:43:15.179Z,19.94
2018-04-06T13:45:42.663Z,21.71
2018-04-06T13:48:10.132Z,22.93
2018-04-06T13:50:37.611Z,23.22
2018-04-06T13:53:05.076Z,23.61
2018-04-06T13:55:32.556Z,20.85
2018-04-06T13:58:00.011Z,22.91
2018-04-06T14:00:27.501Z,22.06
2018-04-06T14:02:54.959Z,19.04
2018-04-06T14:07:57.060Z,21.81
2018-04-06T14:10:24.556Z,23.10
2018-04-06T14:12:52.022Z,23.89
2018-04-06T14:15:19.495Z,24.28
2018-04-06T14:17:46.951Z,24.42
2018-04-06T14:20:14.432Z,24.73
2018-04-06T14:22:41.906Z,24.56
2018-04-06T14:25:09.382Z,24.69
2018-04-06T14:27:36.843Z,24.03
2018-04-06T14:30:04.325Z,24.86
2018-04-06T14:32:31.776Z,23.32
2018-04-06T14:34:59.252Z,22.15
2018-04-06T14:37:26.713Z,22.48
2018-04-06T14:39:54.202Z,21.39
2018-04-06T14:42:21.668Z,21.80
2018-04-06T14:44:49.192Z,23.22
2018-04-06T14:47:16.627Z,21.98
2018-04-06T14:49:44.135Z,20.72
2018-04-06T14:52:11.596Z,22.34
2018-04-06T14:54:39.083Z,20.74
2018-04-06T14:57:06.580Z,19.34
2018-04-06T14:59:34.041Z,19.89
2018-04-06T15:02:01.527Z,20.12
2018-04-06T15:04:28.996Z,19.36
2018-04-06T15:06:56.494Z,21.68
2018-04-06T15:09:24.030Z,22.86
2018-04-06T15:11:51.536Z,23.18
2018-04-06T15:14:18.990Z,21.70
2018-04-06T15:16:46.475Z,18.59
2018-04-06T15:19:14.776Z,18.82
2018-04-06T15:21:42.280Z,20.89
2018-04-06T15:24:09.862Z,19.66
2018-04-06T15:26:37.350Z,20.27
2018-04-06T15:29:04.824Z,20.89
2018-04-06T15:31:32.313Z,21.68
2018-04-06T15:33:59.779Z,23.27
2018-04-06T15:36:27.272Z,23.21
2018-04-06T15:38:54.788Z,22.94
2018-04-06T15:41:22.303Z,20.75
2018-04-06T15:43:53.475Z,20.50
2018-04-06T15:46:24.916Z,22.71
2018-04-06T15:48:52.376Z,23.53
2018-04-06T15:51:19.903Z,22.72
2018-04-06T15:53:47.366Z,21.31
2018-04-06T15:56:14.849Z,21.83
2018-04-06T15:58:42.325Z,21.69
2018-04-06T16:01:09.857Z,21.72
2018-04-06T16:03:37.327Z,22.96
2018-04-06T16:06:04.824Z,23.11
2018-04-06T16:08:32.290Z,20.00
2018-04-06T16:10:59.778Z,19.74
2018-04-06T16:13:27.242Z,21.40
2018-04-06T16:15:54.722Z,20.45
2018-04-06T16:18:22.182Z,20.28
2018-04-06T16:20:49.678Z,19.52
2018-04-06T16:23:17.138Z,20.60
2018-04-06T16:25:44.629Z,19.42
2018-04-06T16:28:12.096Z,20.04
2018-04-06T16:30:39.564Z,19.45
2018-04-06T16:33:07.047Z,21.43
2018-04-06T16:35:34.515Z,16.77
2018-04-06T16:38:02.007Z,17.31
2018-04-06T16:40:29.477Z,15.41
2018-04-06T16:42:56.968Z,15.69
2018-04-06T16:45:24.448Z,15.37
2018-04-06T16:47:51.929Z,15.29
2018-04-06T16:50:19.399Z,15.20
2018-04-06T16:52:46.876Z,15.22
2018-04-06T16:55:14.363Z,15.27
2018-04-06T16:57:41.852Z,14.97
2018-04-06T17:00:09.690Z,14.83
2018-04-06T17:02:37.171Z,14.66
2018-04-06T17:05:04.748Z,14.29
2018-04-06T17:07:32.348Z,14.36
2018-04-06T17:09:59.902Z,14.10
2018-04-06T17:12:27.398Z,14.16
2018-04-06T17:14:54.875Z,13.96
2018-04-06T17:17:22.445Z,14.00
2018-04-06T17:19:49.933Z,13.91
2018-04-06T17:22:19.301Z,13.85
2018-04-06T17:24:46.938Z,13.73
2018-04-06T17:27:15.000Z,13.69
2018-04-06T17:29:42.540Z,13.56
2018-04-06T17:32:10.163Z,13.71
2018-04-06T17:34:37.676Z,13.66
2018-04-06T17:37:05.261Z,13.53
2018-04-06T17:39:32.791Z,13.27
2018-04-06T17:42:00.328Z,13.22
2018-04-06T17:44:27.842Z,13.06
2018-04-06T17:46:55.376Z,13.07
2018-04-06T17:49:22.879Z,13.02
2018-04-06T17:51:50.488Z,12.78
2018-04-06T17:54:18.031Z,12.60
2018-04-06T17:56:45.583Z,12.55
2018-04-06T17:59:13.103Z,12.33
2018-04-06T18:01:40.640Z,12.14
2018-04-06T18:04:08.200Z,11.90
2018-04-06T18:06:35.675Z,11.65
2018-04-06T18:09:03.199Z,11.55
2018-04-06T18:11:30.664Z,11.47
2018-04-06T18:13:58.888Z,11.34
2018-04-06T18:16:26.395Z,11.31
2018-04-06T18:18:53.935Z,11.28
2018-04-06T18:21:21.428Z,11.22
